Terminal Aerodrome Forecast
Issued by NWS

Home | Current Version | Previous Version | Text Only | Print | Product List | Glossary On
Versions: 1 2 3 4 5 6 7 8 9 10 11 12 13 14 15 16 17 18 19 20
000
FTUS43 KPAH 140500
TAFCGI
TAF
KCGI 140520Z 1406/1506 20012G18KT P6SM -SHRA SCT025 OVC070
      TEMPO 1406/1408 3SM -TSRA BR BKN035CB
     FM140900 20013G23KT P6SM VCSH OVC050
     FM141300 31012G22KT P6SM OVC020
     FM141800 33015G25KT 4SM -RA BR OVC015=

USA.gov is the U.S. government's official web portal to all federal, state and local government web resources and services.